createdAt,value
2022-10-22T00:01:04.661Z,13.31
2022-10-22T00:03:38.476Z,13.27
2022-10-22T00:06:06.472Z,13.25
2022-10-22T00:08:33.817Z,13.34
2022-10-22T00:11:12.513Z,13.28
2022-10-22T00:13:40.721Z,13.25
2022-10-22T00:16:08.649Z,13.34
2022-10-22T00:18:36.403Z,13.33
2022-10-22T00:21:04.874Z,13.20
2022-10-22T00:23:32.731Z,13.12
2022-10-22T00:26:02.277Z,13.05
2022-10-22T00:28:30.551Z,12.98
2022-10-22T00:31:03.859Z,12.90
2022-10-22T00:33:35.229Z,12.88
2022-10-22T00:36:02.746Z,12.88
2022-10-22T00:38:30.173Z,12.93
2022-10-22T00:40:57.725Z,12.94
2022-10-22T00:43:25.221Z,12.93
2022-10-22T00:45:54.021Z,12.97
2022-10-22T00:48:28.286Z,12.98
2022-10-22T00:51:06.538Z,13.02
2022-10-22T00:53:39.929Z,13.01
2022-10-22T00:56:09.159Z,12.91
2022-10-22T00:58:44.080Z,13.04
2022-10-22T01:01:21.845Z,13.02
2022-10-22T01:03:53.797Z,13.06
2022-10-22T01:06:36.837Z,13.07
2022-10-22T01:09:17.044Z,13.05
2022-10-22T01:12:05.333Z,13.04
2022-10-22T01:15:30.309Z,13.04
2022-10-22T01:18:16.066Z,13.01
2022-10-22T01:21:12.053Z,13.01
2022-10-22T01:24:10.539Z,12.97
2022-10-22T01:26:59.805Z,13.00
2022-10-22T01:29:50.820Z,13.06
2022-10-22T01:32:22.226Z,13.09
2022-10-22T01:34:54.865Z,13.10
2022-10-22T01:37:26.137Z,13.12
2022-10-22T01:39:54.477Z,13.12
2022-10-22T01:42:22.240Z,13.24
2022-10-22T01:44:53.581Z,13.22
2022-10-22T01:47:50.577Z,13.16
2022-10-22T01:50:50.052Z,13.38
2022-10-22T01:53:32.959Z,13.43
2022-10-22T01:56:25.077Z,13.47
2022-10-22T01:59:08.434Z,13.48
2022-10-22T02:02:08.950Z,13.53
2022-10-22T02:04:46.365Z,13.51
2022-10-22T02:07:19.242Z,13.57
2022-10-22T02:09:47.296Z,13.59
2022-10-22T02:12:17.895Z,13.64
2022-10-22T02:14:46.870Z,13.54
2022-10-22T02:17:20.129Z,13.61
2022-10-22T02:20:19.686Z,13.59
2022-10-22T02:22:47.691Z,13.69
2022-10-22T02:25:15.210Z,13.65
2022-10-22T02:28:02.900Z,13.68
2022-10-22T02:30:33.123Z,13.68
2022-10-22T02:33:20.765Z,13.66
2022-10-22T02:35:49.848Z,13.60
2022-10-22T02:38:19.082Z,13.65
2022-10-22T02:40:47.040Z,13.70
2022-10-22T02:43:15.153Z,13.68
2022-10-22T02:45:42.353Z,13.69
2022-10-22T02:48:09.851Z,13.68
2022-10-22T02:50:37.224Z,13.75
2022-10-22T02:53:05.003Z,13.78
2022-10-22T02:55:32.256Z,13.73
2022-10-22T02:57:59.760Z,13.69
2022-10-22T03:00:28.374Z,13.75
2022-10-22T03:02:56.089Z,13.73
2022-10-22T03:05:23.296Z,13.79
2022-10-22T03:07:50.784Z,13.82
2022-10-22T03:10:18.046Z,13.78
2022-10-22T03:12:45.474Z,13.79
2022-10-22T03:15:12.724Z,13.81
2022-10-22T03:17:40.489Z,13.81
2022-10-22T03:20:08.718Z,13.78
2022-10-22T03:22:44.296Z,13.79
2022-10-22T03:25:36.568Z,13.88
2022-10-22T03:28:06.893Z,13.90
2022-10-22T03:30:34.184Z,13.85
2022-10-22T03:33:02.096Z,13.78
2022-10-22T03:35:29.585Z,13.74
2022-10-22T03:38:00.770Z,13.80
2022-10-22T03:40:28.206Z,13.76
2022-10-22T03:43:14.849Z,13.71
2022-10-22T03:45:42.013Z,13.77
2022-10-22T03:48:09.483Z,13.68
2022-10-22T03:50:36.712Z,13.81
2022-10-22T03:53:04.895Z,13.75
2022-10-22T03:55:32.119Z,13.72
2022-10-22T03:57:59.575Z,13.73
2022-10-22T04:00:27.106Z,13.73
2022-10-22T04:02:57.343Z,13.78
2022-10-22T04:05:24.636Z,13.67
2022-10-22T04:07:52.353Z,13.76
2022-10-22T04:10:19.623Z,13.72
2022-10-22T04:12:50.326Z,13.75
2022-10-22T04:15:17.680Z,13.60
2022-10-22T04:17:45.166Z,13.66
2022-10-22T04:20:12.780Z,13.71
2022-10-22T04:22:41.263Z,13.73
2022-10-22T04:25:10.762Z,13.70
2022-10-22T04:27:43.767Z,13.73
2022-10-22T04:30:26.072Z,13.73
2022-10-22T04:33:05.405Z,13.71
2022-10-22T04:35:38.825Z,13.77
2022-10-22T04:38:06.278Z,13.71
2022-10-22T04:40:33.827Z,13.79
2022-10-22T04:43:01.434Z,13.80
2022-10-22T04:45:28.684Z,13.63
2022-10-22T04:47:56.817Z,13.69
2022-10-22T04:50:42.816Z,13.73
2022-10-22T04:53:10.353Z,13.70
2022-10-22T04:55:37.564Z,13.72
2022-10-22T04:58:05.297Z,13.74
2022-10-22T05:00:32.800Z,13.71
2022-10-22T05:03:00.674Z,13.68
2022-10-22T05:05:28.874Z,13.74
2022-10-22T05:08:13.854Z,13.78
2022-10-22T05:10:42.771Z,13.77
2022-10-22T05:13:16.171Z,13.70
2022-10-22T05:16:14.657Z,13.73
2022-10-22T05:18:46.935Z,13.73
2022-10-22T05:21:18.170Z,13.75
2022-10-22T05:23:48.379Z,13.82
2022-10-22T05:26:18.854Z,13.88
2022-10-22T05:28:48.527Z,13.84
2022-10-22T05:31:17.871Z,13.95
2022-10-22T05:33:46.122Z,14.00
2022-10-22T05:36:16.295Z,14.04
2022-10-22T05:38:44.033Z,14.05
2022-10-22T05:41:17.188Z,14.11
2022-10-22T05:43:45.329Z,14.09
2022-10-22T05:46:22.014Z,14.13
2022-10-22T05:48:59.269Z,14.11
2022-10-22T05:51:30.978Z,14.53
2022-10-22T05:54:01.210Z,15.46
2022-10-22T05:56:30.090Z,16.40
2022-10-22T05:58:57.874Z,17.28
2022-10-22T06:01:28.161Z,17.68
2022-10-22T06:03:58.588Z,18.24
2022-10-22T06:06:46.808Z,19.12
2022-10-22T06:09:22.456Z,19.57
2022-10-22T06:11:50.997Z,19.76
2022-10-22T06:14:20.337Z,19.97
2022-10-22T06:16:48.404Z,20.58
2022-10-22T06:19:18.505Z,20.82
2022-10-22T06:21:47.574Z,21.32
2022-10-22T06:24:19.705Z,21.40
2022-10-22T06:26:52.749Z,21.45
2022-10-22T06:29:20.440Z,21.15
2022-10-22T06:31:48.030Z,21.59
2022-10-22T06:34:18.966Z,21.81
2022-10-22T06:36:47.132Z,22.35
2022-10-22T06:39:17.559Z,22.83
2022-10-22T06:41:45.269Z,22.15
2022-10-22T06:44:18.223Z,22.62
2022-10-22T06:46:46.029Z,23.40
2022-10-22T06:49:15.215Z,23.81
2022-10-22T06:51:42.693Z,24.27
2022-10-22T06:54:10.891Z,25.38
2022-10-22T06:56:38.229Z,25.06
2022-10-22T06:59:05.755Z,25.36
2022-10-22T07:01:35.375Z,25.03
2022-10-22T07:04:04.328Z,24.98
2022-10-22T07:06:31.626Z,24.15
2022-10-22T07:09:00.075Z,23.96
2022-10-22T07:11:30.268Z,24.04
2022-10-22T07:13:59.601Z,24.16
2022-10-22T07:16:31.120Z,23.87
2022-10-22T07:19:04.753Z,24.18
2022-10-22T07:21:32.315Z,24.13
2022-10-22T07:24:00.410Z,24.50
2022-10-22T07:26:30.964Z,25.03
2022-10-22T07:29:02.490Z,25.42
2022-10-22T07:31:30.030Z,26.10
2022-10-22T07:33:58.435Z,26.74
2022-10-22T07:36:25.741Z,25.82
2022-10-22T07:38:58.252Z,26.37
2022-10-22T07:41:27.530Z,26.05
2022-10-22T07:43:56.057Z,26.91
2022-10-22T07:46:24.138Z,26.83
2022-10-22T07:48:51.992Z,26.05
2022-10-22T07:51:19.254Z,26.78
2022-10-22T07:53:46.808Z,25.76
2022-10-22T07:56:14.184Z,25.39
2022-10-22T07:58:41.710Z,25.89
2022-10-22T08:01:09.047Z,25.79
2022-10-22T08:03:36.897Z,25.63
2022-10-22T08:06:04.357Z,24.81
2022-10-22T08:08:32.424Z,24.48
2022-10-22T08:11:00.906Z,24.31
2022-10-22T08:13:30.774Z,24.32
2022-10-22T08:16:01.824Z,24.28
2022-10-22T08:18:29.808Z,24.35
2022-10-22T08:20:57.561Z,23.38
2022-10-22T08:23:26.206Z,22.50
2022-10-22T08:25:57.043Z,22.29
2022-10-22T08:28:24.908Z,23.24
2022-10-22T08:30:52.185Z,23.58
2022-10-22T08:33:19.800Z,23.14
2022-10-22T08:35:51.805Z,22.89
2022-10-22T08:38:19.907Z,21.88
2022-10-22T08:41:06.334Z,21.64
2022-10-22T08:43:42.104Z,21.44
2022-10-22T08:46:42.910Z,21.35
2022-10-22T08:49:20.669Z,21.23
2022-10-22T08:51:48.161Z,21.22
2022-10-22T08:54:44.658Z,21.13
2022-10-22T08:57:39.460Z,21.35
2022-10-22T09:00:15.084Z,21.77
2022-10-22T09:02:48.677Z,22.90
2022-10-22T09:05:54.196Z,24.16
2022-10-22T09:08:22.119Z,24.88
2022-10-22T09:10:56.028Z,24.72
2022-10-22T09:13:24.236Z,24.42
2022-10-22T09:15:56.313Z,23.97
2022-10-22T09:18:30.018Z,24.15
2022-10-22T09:21:04.279Z,25.16
2022-10-22T09:23:39.971Z,25.14
2022-10-22T09:26:15.735Z,24.81
2022-10-22T09:28:44.115Z,25.45
2022-10-22T09:31:13.779Z,25.67
2022-10-22T09:33:42.985Z,26.21
2022-10-22T09:36:18.712Z,25.53
2022-10-22T09:38:52.503Z,25.21
2022-10-22T09:41:26.304Z,25.19
2022-10-22T09:43:57.042Z,24.41
2022-10-22T09:46:31.667Z,23.86
2022-10-22T09:49:11.086Z,23.80
2022-10-22T09:51:51.995Z,23.67
2022-10-22T09:54:24.424Z,24.14
2022-10-22T09:56:57.804Z,24.54
2022-10-22T09:59:29.132Z,24.49
2022-10-22T10:02:08.511Z,24.40
2022-10-22T10:04:53.043Z,23.87
2022-10-22T10:07:23.647Z,23.76
2022-10-22T10:09:52.474Z,23.75
2022-10-22T10:13:05.544Z,23.50
2022-10-22T10:15:55.733Z,23.21
2022-10-22T10:19:19.725Z,22.75
2022-10-22T10:22:12.297Z,22.34
2022-10-22T10:24:48.358Z,22.30
2022-10-22T10:27:20.939Z,22.12
2022-10-22T10:30:16.074Z,22.11
2022-10-22T10:33:01.758Z,22.10
2022-10-22T10:35:37.118Z,22.03
2022-10-22T10:38:40.583Z,22.10
2022-10-22T10:41:17.977Z,22.07
2022-10-22T10:43:51.857Z,22.13
2022-10-22T10:46:48.720Z,22.07
2022-10-22T10:49:33.198Z,22.14
2022-10-22T10:52:17.407Z,22.15
2022-10-22T10:55:23.117Z,22.21
2022-10-22T10:58:40.186Z,22.15
2022-10-22T11:01:42.094Z,22.07
2022-10-22T11:04:47.215Z,21.98
2022-10-22T11:07:34.325Z,22.04
2022-10-22T11:10:32.534Z,22.04
2022-10-22T11:13:08.995Z,22.04
2022-10-22T11:15:39.416Z,22.03
2022-10-22T11:18:18.493Z,22.31
2022-10-22T11:21:17.657Z,22.39
2022-10-22T11:23:46.899Z,22.34
2022-10-22T11:26:46.470Z,22.55
2022-10-22T11:29:23.026Z,22.69
2022-10-22T11:31:53.416Z,22.83
2022-10-22T11:34:44.694Z,23.12
2022-10-22T11:37:14.612Z,23.19
2022-10-22T11:39:51.392Z,23.31
2022-10-22T11:42:30.342Z,23.34
2022-10-22T11:45:29.551Z,23.05
2022-10-22T11:47:57.108Z,23.34
2022-10-22T11:50:47.100Z,23.68
2022-10-22T11:53:14.556Z,23.80
2022-10-22T11:55:55.610Z,24.12
2022-10-22T11:58:38.418Z,24.08
2022-10-22T12:01:08.391Z,24.18
2022-10-22T12:03:38.017Z,24.22
2022-10-22T12:06:05.267Z,24.51
2022-10-22T12:08:34.255Z,24.52
2022-10-22T12:11:41.760Z,24.44
2022-10-22T12:14:28.178Z,24.24
2022-10-22T12:17:14.289Z,24.19
2022-10-22T12:19:45.168Z,24.11
2022-10-22T12:22:31.989Z,23.86
2022-10-22T12:25:10.770Z,23.79
2022-10-22T12:27:42.016Z,23.60
2022-10-22T12:30:37.026Z,23.56
2022-10-22T12:33:28.425Z,23.50
2022-10-22T12:36:07.770Z,23.43
2022-10-22T12:38:49.945Z,23.48
2022-10-22T12:41:18.719Z,23.63
2022-10-22T12:43:46.267Z,24.11
2022-10-22T12:46:16.503Z,24.54
2022-10-22T12:48:45.927Z,24.59
2022-10-22T12:51:18.340Z,24.20
2022-10-22T12:53:53.412Z,24.24
2022-10-22T12:56:32.415Z,24.07
2022-10-22T12:59:39.409Z,23.81
2022-10-22T13:02:31.333Z,23.85
2022-10-22T13:05:31.432Z,23.90
2022-10-22T13:10:55.026Z,23.87
2022-10-22T13:13:35.954Z,23.97
2022-10-22T13:16:14.410Z,23.92
2022-10-22T13:18:42.841Z,23.95
2022-10-22T13:21:24.298Z,23.98
2022-10-22T13:24:00.252Z,23.90
2022-10-22T13:26:33.677Z,23.88
2022-10-22T13:29:02.990Z,23.77
2022-10-22T13:31:33.651Z,23.65
2022-10-22T13:34:09.826Z,23.74
2022-10-22T13:36:39.453Z,23.63
2022-10-22T13:39:09.001Z,23.75
2022-10-22T13:44:08.368Z,23.74
2022-10-22T13:46:44.845Z,23.69
2022-10-22T13:49:23.524Z,23.69
2022-10-22T13:51:51.940Z,23.69
2022-10-22T13:54:24.595Z,23.64
2022-10-22T13:56:53.742Z,23.45
2022-10-22T13:59:22.993Z,23.36
2022-10-22T14:01:52.766Z,23.40
2022-10-22T14:04:20.396Z,23.37
2022-10-22T14:06:47.962Z,23.29
2022-10-22T14:09:20.706Z,23.31
2022-10-22T14:11:53.423Z,23.47
2022-10-22T14:14:41.339Z,23.55
2022-10-22T14:17:22.291Z,23.68
2022-10-22T14:20:46.295Z,23.81
2022-10-22T14:23:24.722Z,23.84
2022-10-22T14:25:52.443Z,24.08
2022-10-22T14:28:20.355Z,24.29
2022-10-22T14:30:48.239Z,24.16
2022-10-22T14:33:28.952Z,24.21
2022-10-22T14:36:00.642Z,24.42
2022-10-22T14:38:29.209Z,24.38
2022-10-22T14:41:05.639Z,24.11
2022-10-22T14:44:29.264Z,23.88
2022-10-22T14:47:36.229Z,23.57
2022-10-22T14:54:03.225Z,23.10
2022-10-22T14:56:30.633Z,23.01
2022-10-22T14:58:58.180Z,22.83
2022-10-22T15:01:25.530Z,22.84
2022-10-22T15:03:55.466Z,22.77
2022-10-22T15:06:32.650Z,22.65
2022-10-22T15:09:03.565Z,22.57
2022-10-22T15:11:35.997Z,22.46
2022-10-22T15:14:05.264Z,22.37
2022-10-22T15:16:32.492Z,22.15
2022-10-22T15:19:00.998Z,22.04
2022-10-22T15:21:28.692Z,21.80
2022-10-22T15:23:56.426Z,21.75
2022-10-22T15:26:26.012Z,21.59
2022-10-22T15:29:29.112Z,21.55
2022-10-22T15:35:54.556Z,21.02
2022-10-22T15:38:39.008Z,20.69
2022-10-22T15:41:10.397Z,20.57
2022-10-22T15:43:38.387Z,20.40
2022-10-22T15:46:11.969Z,20.11
2022-10-22T15:48:39.959Z,20.05
2022-10-22T15:51:15.516Z,19.90
2022-10-22T15:53:43.494Z,19.59
2022-10-22T15:56:12.152Z,19.47
2022-10-22T15:58:40.067Z,19.35
2022-10-22T16:01:11.265Z,19.31
2022-10-22T16:03:39.423Z,19.36
2022-10-22T16:06:09.233Z,19.23
2022-10-22T16:08:38.357Z,18.85
2022-10-22T16:11:08.727Z,18.91
2022-10-22T16:13:37.441Z,18.91
2022-10-22T16:16:07.120Z,18.89
2022-10-22T16:18:34.602Z,18.82
2022-10-22T16:21:01.932Z,18.75
2022-10-22T16:23:29.840Z,18.78
2022-10-22T16:26:15.368Z,18.78
2022-10-22T16:28:59.272Z,18.82
2022-10-22T16:31:35.403Z,18.81
2022-10-22T16:34:18.526Z,18.50
2022-10-22T16:37:39.329Z,18.40
2022-10-22T16:40:58.060Z,18.20
2022-10-22T16:44:50.180Z,18.32
2022-10-22T16:48:00.206Z,18.40
2022-10-22T16:50:41.744Z,18.48
2022-10-22T16:56:11.830Z,18.65
2022-10-22T16:58:43.701Z,18.62
2022-10-22T17:01:13.387Z,18.57
2022-10-22T17:03:42.618Z,18.35
2022-10-22T17:06:11.946Z,18.26
2022-10-22T17:08:41.156Z,18.18
2022-10-22T17:11:13.595Z,18.18
2022-10-22T17:13:42.015Z,18.11
2022-10-22T17:16:12.630Z,18.04
2022-10-22T17:18:41.388Z,17.99
2022-10-22T17:21:10.918Z,17.88
2022-10-22T17:23:40.123Z,17.94
2022-10-22T17:26:44.530Z,17.87
2022-10-22T17:29:52.815Z,17.85
2022-10-22T17:32:57.292Z,17.84
2022-10-22T17:36:33.213Z,17.75
2022-10-22T17:39:39.937Z,17.66
2022-10-22T17:42:09.220Z,17.60
2022-10-22T17:44:37.698Z,17.55
2022-10-22T17:47:06.300Z,17.49
2022-10-22T17:49:33.587Z,17.39
2022-10-22T17:54:33.963Z,17.33
2022-10-22T17:57:11.094Z,17.31
2022-10-22T17:59:41.372Z,17.20
2022-10-22T18:02:17.386Z,17.21
2022-10-22T18:05:11.913Z,17.13
2022-10-22T18:07:49.580Z,17.07
2022-10-22T18:10:24.982Z,17.03
2022-10-22T18:12:55.650Z,16.98
2022-10-22T18:15:58.606Z,16.96
2022-10-22T18:19:04.690Z,16.97
2022-10-22T18:22:04.905Z,16.96
2022-10-22T18:24:36.818Z,16.83
2022-10-22T18:27:04.249Z,16.94
2022-10-22T18:29:31.855Z,16.89
2022-10-22T18:32:00.152Z,16.91
2022-10-22T18:34:31.172Z,16.81
2022-10-22T18:36:58.690Z,16.90
2022-10-22T18:39:26.254Z,16.81
2022-10-22T18:41:55.491Z,16.98
2022-10-22T18:45:29.449Z,16.96
2022-10-22T18:49:03.236Z,17.06
2022-10-22T18:51:32.941Z,17.07
2022-10-22T18:54:32.655Z,17.13
2022-10-22T18:57:02.875Z,17.19
2022-10-22T18:59:31.745Z,17.24
2022-10-22T19:01:59.806Z,17.28
2022-10-22T19:04:34.246Z,17.20
2022-10-22T19:07:01.976Z,17.11
2022-10-22T19:09:29.265Z,17.24
2022-10-22T19:11:56.916Z,17.21
2022-10-22T19:14:24.233Z,17.20
2022-10-22T19:16:52.037Z,17.12
2022-10-22T19:19:22.479Z,17.06
2022-10-22T19:21:51.330Z,16.92
2022-10-22T19:24:20.379Z,16.90
2022-10-22T19:26:59.692Z,16.88
2022-10-22T19:29:32.296Z,16.89
2022-10-22T19:32:59.327Z,16.95
2022-10-22T19:37:06.946Z,17.07
2022-10-22T19:42:56.745Z,17.06
2022-10-22T19:45:26.574Z,17.15
2022-10-22T19:47:54.843Z,17.21
2022-10-22T19:50:22.827Z,17.20
2022-10-22T19:52:51.343Z,17.08
2022-10-22T19:55:18.969Z,17.14
2022-10-22T19:57:53.716Z,17.08
2022-10-22T20:01:39.541Z,17.07
2022-10-22T20:04:15.274Z,16.95
2022-10-22T20:06:45.614Z,17.03
2022-10-22T20:09:26.373Z,16.93
2022-10-22T20:11:54.032Z,16.82
2022-10-22T20:14:21.689Z,16.83
2022-10-22T20:16:49.176Z,16.91
2022-10-22T20:19:17.412Z,16.90
2022-10-22T20:21:46.066Z,16.87
2022-10-22T20:24:14.453Z,16.76
2022-10-22T20:26:44.952Z,16.73
2022-10-22T20:29:26.383Z,16.67
2022-10-22T20:32:28.374Z,16.61
2022-10-22T20:35:22.814Z,16.60
2022-10-22T20:37:54.255Z,16.47
2022-10-22T20:40:34.072Z,16.44
2022-10-22T20:43:04.673Z,16.48
2022-10-22T20:46:03.971Z,16.41
2022-10-22T20:48:38.684Z,16.28
2022-10-22T20:51:10.289Z,16.27
2022-10-22T20:53:40.910Z,16.26
2022-10-22T20:56:15.432Z,16.20
2022-10-22T20:58:48.084Z,16.08
2022-10-22T21:01:23.985Z,16.07
2022-10-22T21:03:53.007Z,15.94
2022-10-22T21:06:23.332Z,15.89
2022-10-22T21:08:52.251Z,15.86
2022-10-22T21:11:20.939Z,15.94
2022-10-22T21:13:48.732Z,15.72
2022-10-22T21:16:18.764Z,15.69
2022-10-22T21:18:49.558Z,15.72
2022-10-22T21:21:17.802Z,15.62
2022-10-22T21:23:45.625Z,15.63
2022-10-22T21:26:13.087Z,15.54
2022-10-22T21:28:42.070Z,15.42
2022-10-22T21:31:21.128Z,15.48
2022-10-22T21:34:17.850Z,15.44
2022-10-22T21:36:53.398Z,15.37
2022-10-22T21:39:26.536Z,15.31
2022-10-22T21:41:57.494Z,15.27
2022-10-22T21:44:25.222Z,15.29
2022-10-22T21:46:52.508Z,15.28
2022-10-22T21:49:20.042Z,15.22
2022-10-22T21:51:47.306Z,15.19
2022-10-22T21:54:14.881Z,15.20
2022-10-22T21:56:43.804Z,15.08
2022-10-22T21:59:11.352Z,15.06
2022-10-22T22:01:39.024Z,15.02
2022-10-22T22:04:18.624Z,15.02
2022-10-22T22:06:46.101Z,14.92
2022-10-22T22:09:21.032Z,14.99
2022-10-22T22:11:51.830Z,14.93
2022-10-22T22:14:21.064Z,14.85
2022-10-22T22:16:48.313Z,14.91
2022-10-22T22:19:15.819Z,14.88
2022-10-22T22:21:43.131Z,14.90
2022-10-22T22:24:12.968Z,14.95
2022-10-22T22:26:41.026Z,14.86
2022-10-22T22:29:15.319Z,14.89
2022-10-22T22:32:49.148Z,14.91
2022-10-22T22:35:32.177Z,14.95
2022-10-22T22:38:03.441Z,14.99
2022-10-22T22:40:39.210Z,15.02
2022-10-22T22:43:11.644Z,14.96
2022-10-22T22:45:40.894Z,14.88
2022-10-22T22:48:08.282Z,14.88
2022-10-22T22:50:36.774Z,15.00
2022-10-22T22:53:04.013Z,14.87
2022-10-22T22:55:32.091Z,14.86
2022-10-22T22:57:59.409Z,14.84
2022-10-22T23:00:27.174Z,14.82
2022-10-22T23:02:55.920Z,14.84
2022-10-22T23:05:23.400Z,14.81
2022-10-22T23:07:50.633Z,14.64
2022-10-22T23:10:18.060Z,14.77
2022-10-22T23:12:45.494Z,14.79
2022-10-22T23:15:12.991Z,14.85
2022-10-22T23:17:40.256Z,14.62
2022-10-22T23:20:08.961Z,14.70
2022-10-22T23:22:36.542Z,14.69
2022-10-22T23:25:04.193Z,14.67
2022-10-22T23:27:31.415Z,14.62
2022-10-22T23:29:58.863Z,14.52
2022-10-22T23:32:26.140Z,14.51
2022-10-22T23:34:53.640Z,14.38
2022-10-22T23:37:20.973Z,14.44
2022-10-22T23:39:48.526Z,14.27
2022-10-22T23:42:15.767Z,14.28
2022-10-22T23:44:43.565Z,14.23
2022-10-22T23:47:11.011Z,14.13
2022-10-22T23:49:38.446Z,14.10
2022-10-22T23:52:05.690Z,14.10
2022-10-22T23:54:34.417Z,14.09
2022-10-22T23:57:01.665Z,13.96
2022-10-22T23:59:29.122Z,14.00
